DAUT

Details ICAO DAUT (TMX)
Name TIMIMOUN
Region Algeria
Timezone Africa/Algiers (UTC+1.0)
Plans Departing 3
Arriving 5
Stats Elevation 1,027 ft / 313 m (AMSL)
Location 29.236667° 0.275973°
Runways 1
Magnetic Variation 0.150° E
Sunrise 2018-05-26 05:03:15 UTC / 2018-05-26 06:03:15 Local
Sunset 2018-05-26 18:51:30 UTC / 2018-05-26 19:51:30 Local
Advertisement - Login to hide

Runways

ID Width Length Bearing (true) Bearing (mag) Surface Threshold Offset Overrun Length
06 148 ft / 45 m 9,881 ft / 3,012 m 56.35° 56.20° Asphalt 0 ft / 0 m 0 ft / 0 m
24 148 ft / 45 m 9,881 ft / 3,012 m 236.37° 236.22° Asphalt 0 ft / 0 m 0 ft / 0 m

Map

Weather


0- 5 10 15 20 25 30 35+ Temperature / ° C

Clouds and Precipitation
Forecast for 2018-05-26 18:00 UTC. Updated 5 hours ago

Ground ~20,000 ft ~40,000 ft Winds

METAR

DAUT 262100Z 35012KT CAVOK 31/05 Q1014

TAF

Not found

Frequencies

Tower 119.70 MHz TWR
Warning: Do not use this data for real-world aviation or navigation. No guarantee of current accuracy is given.